KADW

Joint Base Andrews Airport

Camp Springs, Maryland, USA
METAR KADW 240256Z AUTO 05008KT 4SM -RA BR BKN005 OVC009 17/16 A3024 RMK AO2 CIG 002 RWY19L SLP246 P0002 60009 T01660163 52010 $
Observed Flight Rules
Sep-24 @ 02:56 UTC (52 minutes ago) Instrument Flight Rules
Wind Visibility Clouds Conditions
50° at 8 knots 4 miles
  • Broken at 500' AGL
  • Overcast at 900' AGL
  • Light Rain
  • Mist
Temperatures Readings Precipitation
Current 17°C / 63°F
Dewpoint 16°C / 61°F
Humidity 94%
Altimeter 30.24" Hg
Pressure 1024.6 hPa
Elevation 86
Current Rain 0.02
METAR KADW 240256Z AUTO 05008KT 4SM -RA BR BKN005 OVC009 17/16 A3024 RMK AO2 CIG 002 RWY19L SLP246 P0002 60009 T01660163 52010 $
Observed Flight Rules
Sep-24 @ 02:56 UTC
(52 minutes ago)
IFR
Wind Visibility
50° at 8 knots 4 miles
Clouds
  • Broken at 500' AGL
  • Overcast at 900' AGL
Conditions
  • Light Rain
  • Mist
Temperature Dewpoint
17°C / 63°F 16°C / 61°F
Humidity Altimeter Pressure
94% 30.24" Hg 1024.6 hPa
Current Rain
0.02